createdAt,value
2016-11-03T00:00:54.631Z,6.59
2016-11-03T00:01:54.597Z,6.8
2016-11-03T00:02:54.621Z,6.8
2016-11-03T00:03:54.634Z,6.72
2016-11-03T00:04:54.642Z,6.76
2016-11-03T00:05:54.647Z,6.8
2016-11-03T00:06:57.659Z,6.68
2016-11-03T00:08:00.174Z,6.79
2016-11-03T00:09:02.821Z,6.65
2016-11-03T00:09:57.077Z,6.77
2016-11-03T00:11:02.974Z,6.63
2016-11-03T00:12:02.318Z,6.69
2016-11-03T00:13:04.493Z,6.66
2016-11-03T00:14:02.162Z,6.79
2016-11-03T00:15:02.720Z,6.76
2016-11-03T00:16:02.785Z,6.69
2016-11-03T00:17:03.167Z,6.63
2016-11-03T00:18:02.477Z,6.61
2016-11-03T00:19:03.238Z,6.69
2016-11-03T00:20:02.667Z,6.71
2016-11-03T00:21:02.686Z,6.58
2016-11-03T00:22:02.249Z,6.71
2016-11-03T00:23:01.803Z,6.65
2016-11-03T00:24:04.200Z,6.62
2016-11-03T00:25:02.862Z,6.61
2016-11-03T00:26:02.184Z,6.59
2016-11-03T00:27:02.664Z,6.63
2016-11-03T00:28:02.195Z,6.61
2016-11-03T00:29:02.696Z,6.56
2016-11-03T00:30:01.725Z,6.47
2016-11-03T00:31:01.638Z,6.68
2016-11-03T00:32:01.190Z,6.54
2016-11-03T00:33:01.667Z,6.43
2016-11-03T00:33:54.639Z,6.5
2016-11-03T00:34:54.680Z,6.43
2016-11-03T00:35:54.687Z,6.47
2016-11-03T00:36:54.658Z,6.58
2016-11-03T00:37:54.630Z,6.51
2016-11-03T00:38:54.645Z,6.53
2016-11-03T00:39:54.639Z,6.41
2016-11-03T00:40:54.611Z,6.54
2016-11-03T00:41:54.687Z,6.35
2016-11-03T00:42:54.630Z,6.5
2016-11-03T00:43:54.666Z,6.33
2016-11-03T00:44:54.859Z,6.54
2016-11-03T00:45:54.618Z,6.66
2016-11-03T00:46:54.668Z,6.47
2016-11-03T00:47:54.824Z,6.61
2016-11-03T00:48:54.623Z,6.47
2016-11-03T00:49:54.663Z,6.58
2016-11-03T00:50:55.002Z,6.47
2016-11-03T00:51:54.634Z,6.59
2016-11-03T00:52:54.680Z,6.59
2016-11-03T00:53:54.629Z,6.65
2016-11-03T00:54:54.802Z,6.62
2016-11-03T00:55:54.613Z,6.69
2016-11-03T00:56:54.662Z,6.62
2016-11-03T00:57:54.658Z,6.73
2016-11-03T00:58:54.665Z,6.73
2016-11-03T00:59:54.643Z,6.66
2016-11-03T01:00:54.650Z,6.73
2016-11-03T01:01:54.656Z,6.69
2016-11-03T01:02:55.235Z,6.79
2016-11-03T01:03:54.637Z,6.62
2016-11-03T01:04:54.672Z,6.65
2016-11-03T01:05:54.694Z,6.65
2016-11-03T01:06:54.643Z,6.81
2016-11-03T01:07:54.673Z,6.76
2016-11-03T01:08:54.950Z,6.71
2016-11-03T01:09:54.673Z,6.79
2016-11-03T01:10:54.665Z,6.65
2016-11-03T01:11:54.947Z,6.71
2016-11-03T01:12:54.659Z,6.79
2016-11-03T01:13:54.665Z,6.66
2016-11-03T01:14:54.676Z,6.76
2016-11-03T01:15:54.689Z,6.79
2016-11-03T01:16:54.673Z,6.95
2016-11-03T01:17:54.908Z,6.59
2016-11-03T01:18:54.678Z,6.79
2016-11-03T01:19:54.679Z,6.76
2016-11-03T01:20:54.723Z,6.77
2016-11-03T01:21:54.671Z,6.79
2016-11-03T01:22:54.663Z,6.76
2016-11-03T01:23:54.847Z,6.81
2016-11-03T01:24:54.942Z,6.9
2016-11-03T01:25:54.686Z,6.83
2016-11-03T01:26:54.656Z,6.86
2016-11-03T01:27:54.685Z,6.77
2016-11-03T01:28:54.681Z,6.89
2016-11-03T01:29:54.899Z,6.8
2016-11-03T01:30:54.714Z,6.8
2016-11-03T01:31:54.734Z,6.83
2016-11-03T01:32:54.911Z,6.79
2016-11-03T01:33:54.675Z,6.81
2016-11-03T01:34:54.704Z,6.84
2016-11-03T01:35:54.932Z,6.8
2016-11-03T01:36:54.686Z,6.8
2016-11-03T01:37:54.841Z,6.81
2016-11-03T01:38:55.185Z,6.83
2016-11-03T01:39:54.717Z,6.79
2016-11-03T01:40:54.732Z,6.87
2016-11-03T01:41:54.810Z,6.9
2016-11-03T01:42:54.671Z,6.81
2016-11-03T01:43:54.679Z,6.72
2016-11-03T01:44:54.686Z,6.8
2016-11-03T01:45:54.678Z,6.81
2016-11-03T01:46:54.685Z,6.97
2016-11-03T01:47:54.966Z,6.72
2016-11-03T01:48:54.701Z,6.77
2016-11-03T01:49:54.734Z,6.83
2016-11-03T01:50:54.747Z,6.81
2016-11-03T01:51:54.700Z,6.8
2016-11-03T01:52:54.699Z,6.73
2016-11-03T01:53:54.784Z,6.76
2016-11-03T01:54:54.743Z,6.84
2016-11-03T01:55:54.793Z,6.9
2016-11-03T01:56:55.400Z,6.89
2016-11-03T01:57:54.720Z,7.02
2016-11-03T01:58:54.726Z,6.95
2016-11-03T01:59:54.857Z,6.83
2016-11-03T02:00:54.710Z,6.89
2016-11-03T02:01:54.906Z,6.83
2016-11-03T02:02:54.704Z,6.77
2016-11-03T02:03:54.718Z,6.95
2016-11-03T02:04:54.721Z,6.9
2016-11-03T02:05:54.747Z,6.89
2016-11-03T02:06:54.771Z,6.89
2016-11-03T02:07:54.727Z,6.9
2016-11-03T02:08:54.988Z,6.8
2016-11-03T02:09:54.697Z,6.97
2016-11-03T02:10:54.796Z,6.86
2016-11-03T02:11:55.033Z,6.9
2016-11-03T02:12:54.718Z,6.91
2016-11-03T02:13:54.731Z,6.86
2016-11-03T02:14:55.052Z,6.86
2016-11-03T02:15:54.708Z,6.98
2016-11-03T02:16:54.755Z,6.86
2016-11-03T02:17:55.005Z,6.79
2016-11-03T02:18:54.734Z,6.73
2016-11-03T02:19:54.812Z,6.86
2016-11-03T02:20:54.737Z,6.8
2016-11-03T02:21:54.728Z,6.87
2016-11-03T02:22:54.708Z,6.89
2016-11-03T02:23:54.992Z,6.81
2016-11-03T02:24:54.718Z,6.9
2016-11-03T02:25:54.700Z,6.95
2016-11-03T02:26:54.922Z,6.84
2016-11-03T02:27:54.717Z,6.79
2016-11-03T02:28:54.755Z,6.83
2016-11-03T02:29:54.829Z,6.91
2016-11-03T02:30:54.738Z,6.77
2016-11-03T02:31:54.774Z,6.9
2016-11-03T02:32:54.989Z,6.83
2016-11-03T02:33:54.707Z,6.9
2016-11-03T02:34:54.739Z,6.91
2016-11-03T02:35:54.722Z,6.87
2016-11-03T02:36:54.740Z,6.89
2016-11-03T02:37:54.791Z,6.87
2016-11-03T02:38:54.787Z,6.98
2016-11-03T02:39:54.739Z,6.87
2016-11-03T02:40:54.733Z,6.84
2016-11-03T02:41:54.734Z,6.89
2016-11-03T02:42:54.707Z,6.77
2016-11-03T02:43:54.717Z,6.89
2016-11-03T02:44:54.749Z,6.83
2016-11-03T02:45:54.728Z,6.81
2016-11-03T02:46:54.788Z,6.72
2016-11-03T02:47:54.744Z,6.68
2016-11-03T02:48:54.745Z,6.59
2016-11-03T02:49:54.793Z,6.65
2016-11-03T02:50:54.778Z,6.63
2016-11-03T02:51:54.804Z,6.72
2016-11-03T02:52:54.774Z,6.77
2016-11-03T02:53:54.784Z,6.77
2016-11-03T02:54:54.823Z,6.61
2016-11-03T02:55:54.765Z,6.69
2016-11-03T02:56:54.709Z,6.76
2016-11-03T02:57:54.754Z,6.58
2016-11-03T02:58:54.730Z,6.68
2016-11-03T02:59:54.769Z,6.59
2016-11-03T03:00:54.776Z,6.66
2016-11-03T03:01:54.742Z,6.58
2016-11-03T03:02:54.765Z,6.76
2016-11-03T03:03:54.761Z,6.58
2016-11-03T03:04:54.745Z,6.66
2016-11-03T03:05:54.734Z,6.56
2016-11-03T03:06:55.746Z,6.68
2016-11-03T03:07:54.733Z,6.51
2016-11-03T03:08:54.741Z,6.53
2016-11-03T03:09:54.797Z,6.71
2016-11-03T03:10:54.752Z,6.54
2016-11-03T03:11:54.740Z,6.58
2016-11-03T03:12:54.760Z,6.63
2016-11-03T03:13:54.797Z,6.59
2016-11-03T03:14:54.774Z,6.56
2016-11-03T03:15:54.780Z,6.59
2016-11-03T03:16:54.755Z,6.59
2016-11-03T03:17:54.753Z,6.65
2016-11-03T03:18:54.754Z,6.48
2016-11-03T03:19:54.758Z,6.61
2016-11-03T03:20:54.742Z,6.51
2016-11-03T03:21:54.766Z,6.58
2016-11-03T03:22:54.758Z,6.59
2016-11-03T03:23:54.752Z,6.51
2016-11-03T03:24:54.758Z,6.59
2016-11-03T03:25:54.747Z,6.47
2016-11-03T03:26:54.755Z,6.54
2016-11-03T03:27:54.755Z,6.54
2016-11-03T03:28:54.798Z,6.58
2016-11-03T03:29:54.810Z,6.5
2016-11-03T03:30:54.768Z,6.56
2016-11-03T03:31:54.766Z,6.5
2016-11-03T03:32:54.781Z,6.51
2016-11-03T03:33:54.768Z,6.66
2016-11-03T03:34:54.816Z,6.44
2016-11-03T03:35:54.819Z,6.61
2016-11-03T03:36:54.776Z,6.53
2016-11-03T03:37:54.798Z,6.47
2016-11-03T03:38:54.775Z,6.29
2016-11-03T03:39:54.771Z,6.26
2016-11-03T03:40:54.749Z,6.47
2016-11-03T03:41:54.771Z,6.46
2016-11-03T03:42:54.755Z,6.32
2016-11-03T03:43:54.755Z,6.32
2016-11-03T03:44:54.762Z,6.26
2016-11-03T03:45:54.784Z,6.18
2016-11-03T03:46:54.788Z,6.21
2016-11-03T03:47:54.806Z,6.25
2016-11-03T03:48:54.808Z,6.22
2016-11-03T03:49:54.775Z,6.22
2016-11-03T03:50:54.768Z,6.25
2016-11-03T03:51:54.774Z,6.19
2016-11-03T03:52:54.784Z,6.3
2016-11-03T03:53:54.820Z,6.21
2016-11-03T03:54:54.826Z,6.36
2016-11-03T03:55:54.852Z,6.33
2016-11-03T03:56:54.790Z,6.26
2016-11-03T03:57:54.769Z,6.18
2016-11-03T03:58:54.872Z,6.14
2016-11-03T03:59:54.801Z,6.18
2016-11-03T04:00:54.829Z,6.11
2016-11-03T04:01:54.784Z,6.1
2016-11-03T04:02:54.813Z,5.98
2016-11-03T04:03:54.786Z,6.07
2016-11-03T04:04:54.835Z,6.18
2016-11-03T04:05:54.813Z,6.14
2016-11-03T04:06:54.801Z,6.07
2016-11-03T04:07:54.867Z,5.95
2016-11-03T04:08:54.795Z,5.88
2016-11-03T04:09:54.822Z,6.04
2016-11-03T04:10:54.800Z,6.03
2016-11-03T04:11:54.851Z,5.88
2016-11-03T04:12:54.889Z,5.91
2016-11-03T04:13:54.790Z,5.74
2016-11-03T04:14:54.804Z,5.85
2016-11-03T04:15:54.787Z,5.71
2016-11-03T04:16:54.819Z,5.7
2016-11-03T04:17:54.798Z,5.74
2016-11-03T04:18:54.787Z,5.63
2016-11-03T04:19:54.838Z,5.71
2016-11-03T04:20:54.787Z,5.81
2016-11-03T04:21:54.800Z,5.64
2016-11-03T04:22:54.851Z,5.64
2016-11-03T04:23:54.813Z,5.74
2016-11-03T04:24:54.828Z,5.74
2016-11-03T04:25:54.840Z,5.73
2016-11-03T04:26:54.841Z,5.78
2016-11-03T04:27:54.817Z,5.55
2016-11-03T04:28:54.778Z,5.92
2016-11-03T04:29:54.814Z,6.01
2016-11-03T04:30:54.820Z,5.85
2016-11-03T04:31:54.810Z,6.01
2016-11-03T04:32:54.816Z,5.86
2016-11-03T04:33:54.869Z,5.96
2016-11-03T04:34:54.864Z,6.07
2016-11-03T04:35:54.825Z,5.75
2016-11-03T04:36:54.816Z,5.83
2016-11-03T04:37:54.809Z,5.91
2016-11-03T04:38:54.768Z,5.91
2016-11-03T04:39:54.838Z,5.85
2016-11-03T04:40:54.816Z,5.75
2016-11-03T04:41:54.797Z,5.89
2016-11-03T04:42:54.816Z,5.75
2016-11-03T04:43:54.852Z,5.74
2016-11-03T04:44:54.829Z,5.78
2016-11-03T04:45:54.820Z,5.68
2016-11-03T04:46:54.851Z,5.85
2016-11-03T04:47:54.816Z,5.85
2016-11-03T04:48:54.841Z,5.73
2016-11-03T04:49:54.829Z,5.59
2016-11-03T04:50:54.849Z,5.74
2016-11-03T04:51:54.844Z,5.71
2016-11-03T04:52:54.852Z,5.7
2016-11-03T04:53:54.835Z,5.52
2016-11-03T04:54:54.813Z,5.66
2016-11-03T04:55:54.890Z,5.57
2016-11-03T04:56:54.832Z,5.63
2016-11-03T04:57:54.817Z,5.56
2016-11-03T04:58:54.836Z,5.49
2016-11-03T04:59:54.852Z,5.38
2016-11-03T05:00:54.825Z,5.43
2016-11-03T05:01:54.867Z,5.43
2016-11-03T05:02:54.839Z,5.55
2016-11-03T05:03:54.837Z,5.37
2016-11-03T05:04:54.887Z,5.48
2016-11-03T05:05:54.837Z,5.31
2016-11-03T05:06:54.842Z,5.4
2016-11-03T05:07:54.850Z,5.63
2016-11-03T05:08:54.857Z,5.43
2016-11-03T05:09:54.865Z,5.45
2016-11-03T05:10:54.857Z,5.52
2016-11-03T05:11:54.845Z,5.52
2016-11-03T05:12:54.887Z,5.55
2016-11-03T05:13:54.895Z,5.46
2016-11-03T05:14:54.943Z,5.59
2016-11-03T05:15:54.891Z,5.45
2016-11-03T05:16:54.858Z,5.56
2016-11-03T05:17:54.877Z,5.67
2016-11-03T05:18:54.867Z,5.57
2016-11-03T05:19:54.901Z,5.59
2016-11-03T05:20:54.860Z,5.68
2016-11-03T05:21:54.884Z,5.75
2016-11-03T05:22:54.845Z,5.56
2016-11-03T05:23:55.906Z,5.63
2016-11-03T05:24:54.871Z,5.64
2016-11-03T05:25:54.802Z,5.71
2016-11-03T05:26:54.826Z,5.53
2016-11-03T05:27:54.847Z,5.67
2016-11-03T05:28:54.940Z,5.71
2016-11-03T05:29:54.884Z,5.71
2016-11-03T05:30:54.834Z,5.75
2016-11-03T05:31:54.828Z,5.75
2016-11-03T05:32:54.841Z,5.86
2016-11-03T05:33:54.854Z,5.73
2016-11-03T05:34:54.926Z,5.81
2016-11-03T05:35:54.870Z,5.74
2016-11-03T05:36:54.822Z,5.75
2016-11-03T05:37:54.850Z,5.81
2016-11-03T05:38:54.844Z,5.77
2016-11-03T05:39:54.872Z,5.91
2016-11-03T05:40:54.871Z,5.73
2016-11-03T05:41:54.897Z,5.85
2016-11-03T05:42:54.870Z,5.88
2016-11-03T05:43:54.860Z,5.83
2016-11-03T05:44:54.860Z,5.81
2016-11-03T05:45:54.851Z,6.04
2016-11-03T05:46:54.866Z,5.85
2016-11-03T05:47:54.872Z,6.1
2016-11-03T05:48:54.864Z,6.03
2016-11-03T05:49:55.327Z,5.91
2016-11-03T05:50:54.854Z,5.93
2016-11-03T05:51:54.877Z,6
2016-11-03T05:52:54.914Z,5.96
2016-11-03T05:53:54.884Z,5.96
2016-11-03T05:54:54.890Z,5.96
2016-11-03T05:55:54.874Z,5.93
2016-11-03T05:56:54.885Z,5.89
2016-11-03T05:57:54.857Z,5.96
2016-11-03T05:58:54.918Z,5.98
2016-11-03T05:59:54.913Z,6.03
2016-11-03T06:00:54.884Z,6.1
2016-11-03T06:01:54.906Z,6.07
2016-11-03T06:02:54.887Z,6.1
2016-11-03T06:03:54.895Z,5.96
2016-11-03T06:04:54.902Z,6.07
2016-11-03T06:05:54.869Z,5.92
2016-11-03T06:06:54.898Z,6.07
2016-11-03T06:07:54.850Z,6.11
2016-11-03T06:08:54.912Z,6.01
2016-11-03T06:09:54.903Z,6.16
2016-11-03T06:10:54.910Z,6.07
2016-11-03T06:11:55.279Z,5.88
2016-11-03T06:12:54.924Z,6.09
2016-11-03T06:13:54.899Z,6.11
2016-11-03T06:14:54.938Z,6.07
2016-11-03T06:15:54.967Z,6.1
2016-11-03T06:16:54.921Z,6.1
2016-11-03T06:17:54.895Z,6.18
2016-11-03T06:18:54.911Z,6.18
2016-11-03T06:19:54.900Z,6.26
2016-11-03T06:20:54.931Z,6.19
2016-11-03T06:21:54.900Z,6.25
2016-11-03T06:22:54.921Z,6.13
2016-11-03T06:23:55.302Z,6.25
2016-11-03T06:24:56.086Z,6.18
2016-11-03T06:25:56.004Z,6.29
2016-11-03T06:26:55.532Z,6.29
2016-11-03T06:27:55.737Z,6.25
2016-11-03T06:28:54.898Z,6.16
2016-11-03T06:29:54.940Z,6.14
2016-11-03T06:30:55.779Z,6.29
2016-11-03T06:31:56.011Z,6.21
2016-11-03T06:32:54.926Z,6.35
2016-11-03T06:33:55.148Z,6.41
2016-11-03T06:34:55.020Z,6.46
2016-11-03T06:35:55.190Z,6.36
2016-11-03T06:36:54.969Z,6.28
2016-11-03T06:37:54.895Z,6.32
2016-11-03T06:38:55.434Z,6.4
2016-11-03T06:39:54.911Z,6.18
2016-11-03T06:40:55.112Z,6.29
2016-11-03T06:41:54.903Z,6.5
2016-11-03T06:42:54.911Z,6.5
2016-11-03T06:43:55.977Z,6.47
2016-11-03T06:44:54.903Z,6.56
2016-11-03T06:45:54.964Z,6.54
2016-11-03T06:46:54.902Z,6.51
2016-11-03T06:47:54.930Z,6.58
2016-11-03T06:48:55.189Z,6.44
2016-11-03T06:49:54.943Z,6.65
2016-11-03T06:50:55.011Z,6.51
2016-11-03T06:51:55.007Z,6.5
2016-11-03T06:52:54.924Z,6.61
2016-11-03T06:53:55.944Z,6.63
2016-11-03T06:54:54.924Z,6.65
2016-11-03T06:55:55.273Z,6.54
2016-11-03T06:56:54.995Z,6.65
2016-11-03T06:57:56.227Z,6.5
2016-11-03T06:58:55.033Z,6.76
2016-11-03T06:59:54.936Z,6.61
2016-11-03T07:00:55.404Z,6.69
2016-11-03T07:01:54.933Z,6.68
2016-11-03T07:02:54.955Z,6.65
2016-11-03T07:03:54.918Z,6.77
2016-11-03T07:04:54.953Z,6.79
2016-11-03T07:05:54.932Z,6.71
2016-11-03T07:06:54.936Z,6.62
2016-11-03T07:07:55.279Z,6.61
2016-11-03T07:08:54.972Z,6.73
2016-11-03T07:09:54.935Z,6.81
2016-11-03T07:10:55.011Z,6.73
2016-11-03T07:11:55.071Z,6.81
2016-11-03T07:12:54.956Z,6.81
2016-11-03T07:13:54.946Z,6.73
2016-11-03T07:14:54.937Z,6.86
2016-11-03T07:15:54.921Z,6.76
2016-11-03T07:16:54.929Z,6.8
2016-11-03T07:17:55.317Z,6.76
2016-11-03T07:18:54.937Z,6.9
2016-11-03T07:19:54.975Z,6.87
2016-11-03T07:20:54.977Z,6.91
2016-11-03T07:21:55.102Z,6.9
2016-11-03T07:22:54.954Z,6.95
2016-11-03T07:23:55.048Z,6.86
2016-11-03T07:24:54.927Z,7.07
2016-11-03T07:25:54.925Z,6.98
2016-11-03T07:26:55.552Z,7.04
2016-11-03T07:27:54.916Z,6.97
2016-11-03T07:28:55.033Z,6.99
2016-11-03T07:29:54.934Z,6.98
2016-11-03T07:30:59.136Z,6.95
2016-11-03T07:31:56.922Z,7.07
2016-11-03T07:32:55.139Z,7.02
2016-11-03T07:33:58.780Z,7.04
2016-11-03T07:34:55.007Z,7.16
2016-11-03T07:35:54.940Z,7.12
2016-11-03T07:36:54.956Z,7.16
2016-11-03T07:37:54.937Z,7.23
2016-11-03T07:38:54.968Z,7.2
2016-11-03T07:40:02.240Z,7.23
2016-11-03T07:40:54.966Z,7.31
2016-11-03T07:42:00.336Z,7.2
2016-11-03T07:42:54.940Z,7.26
2016-11-03T07:43:54.948Z,7.34
2016-11-03T07:44:55.022Z,7.22
2016-11-03T07:45:55.912Z,7.35
2016-11-03T07:46:54.991Z,7.24
2016-11-03T07:47:55.000Z,7.31
2016-11-03T07:48:55.090Z,7.24
2016-11-03T07:49:54.945Z,7.24
2016-11-03T07:50:55.700Z,7.29
2016-11-03T07:51:55.008Z,7.29
2016-11-03T07:52:54.936Z,7.27
2016-11-03T07:53:54.945Z,7.27
2016-11-03T07:54:55.016Z,7.34
2016-11-03T07:55:54.963Z,7.27
2016-11-03T07:56:54.924Z,7.31
2016-11-03T07:57:54.905Z,7.41
2016-11-03T07:58:54.991Z,7.53
2016-11-03T07:59:54.917Z,7.38
2016-11-03T08:00:54.971Z,7.47
2016-11-03T08:01:54.954Z,7.49
2016-11-03T08:02:54.980Z,7.56
2016-11-03T08:03:55.006Z,7.52
2016-11-03T08:04:54.988Z,7.58
2016-11-03T08:05:54.979Z,7.62
2016-11-03T08:06:55.016Z,7.62
2016-11-03T08:07:54.999Z,7.62
2016-11-03T08:08:54.952Z,7.71
2016-11-03T08:09:54.966Z,7.71
2016-11-03T08:10:54.957Z,7.69
2016-11-03T08:11:54.985Z,7.84
2016-11-03T08:12:55.016Z,7.79
2016-11-03T08:13:54.947Z,7.85
2016-11-03T08:14:54.931Z,7.74
2016-11-03T08:15:54.929Z,7.81
2016-11-03T08:16:54.949Z,7.67
2016-11-03T08:17:54.954Z,7.69
2016-11-03T08:18:54.952Z,7.79
2016-11-03T08:19:54.959Z,7.84
2016-11-03T08:20:54.945Z,7.85
2016-11-03T08:21:54.983Z,7.87
2016-11-03T08:22:54.992Z,7.89
2016-11-03T08:23:54.982Z,7.89
2016-11-03T08:24:55.033Z,8.02
2016-11-03T08:25:55.576Z,8.17
2016-11-03T08:26:54.960Z,8.21
2016-11-03T08:27:54.966Z,8.32
2016-11-03T08:28:54.961Z,8.25
2016-11-03T08:29:54.968Z,8.21
2016-11-03T08:30:54.960Z,8.25
2016-11-03T08:31:55.056Z,8.26
2016-11-03T08:32:55.007Z,8.3
2016-11-03T08:33:54.967Z,8.33
2016-11-03T08:34:55.019Z,8.33
2016-11-03T08:35:54.963Z,8.55
2016-11-03T08:36:54.959Z,8.48
2016-11-03T08:37:54.971Z,8.39
2016-11-03T08:38:55.004Z,8.45
2016-11-03T08:39:55.006Z,8.5
2016-11-03T08:40:54.975Z,8.47
2016-11-03T08:41:54.974Z,8.51
2016-11-03T08:42:55.041Z,8.57
2016-11-03T08:43:54.974Z,8.57
2016-11-03T08:44:54.978Z,8.68
2016-11-03T08:45:54.997Z,8.5
2016-11-03T08:46:54.978Z,8.68
2016-11-03T08:47:54.988Z,8.55
2016-11-03T08:48:54.965Z,8.62
2016-11-03T08:49:54.945Z,8.58
2016-11-03T08:50:54.993Z,8.65
2016-11-03T08:51:54.956Z,8.58
2016-11-03T08:52:54.948Z,8.53
2016-11-03T08:53:55.041Z,8.53
2016-11-03T08:54:54.974Z,8.53
2016-11-03T08:55:55.061Z,8.48
2016-11-03T08:56:54.945Z,8.5
2016-11-03T08:57:54.947Z,8.5
2016-11-03T08:58:54.954Z,8.54
2016-11-03T08:59:54.951Z,8.55
2016-11-03T09:00:55.153Z,8.62
2016-11-03T09:01:54.993Z,8.65
2016-11-03T09:02:55.018Z,8.73
2016-11-03T09:03:54.989Z,8.53
2016-11-03T09:04:55.029Z,8.71
2016-11-03T09:05:55.050Z,8.73
2016-11-03T09:06:55.041Z,8.65
2016-11-03T09:07:55.067Z,8.69
2016-11-03T09:08:55.037Z,8.65
2016-11-03T09:09:55.131Z,8.86
2016-11-03T09:10:55.067Z,8.68
2016-11-03T09:11:55.044Z,8.84
2016-11-03T09:12:55.085Z,8.93
2016-11-03T09:13:55.043Z,8.9
2016-11-03T09:14:55.019Z,9.1
2016-11-03T09:15:55.027Z,9.21
2016-11-03T09:16:55.025Z,9.13
2016-11-03T09:17:55.051Z,9.35
2016-11-03T09:18:55.003Z,9.24
2016-11-03T09:19:55.040Z,9.35
2016-11-03T09:20:54.992Z,9.45
2016-11-03T09:21:55.060Z,9.42
2016-11-03T09:22:55.014Z,9.52
2016-11-03T09:23:55.001Z,9.53
2016-11-03T09:24:55.061Z,9.46
2016-11-03T09:25:55.050Z,9.53
2016-11-03T09:26:55.020Z,9.53
2016-11-03T09:27:55.013Z,9.6
2016-11-03T09:28:55.018Z,9.48
2016-11-03T09:29:55.023Z,9.49
2016-11-03T09:30:55.027Z,9.52
2016-11-03T09:31:55.622Z,9.6
2016-11-03T09:32:55.043Z,9.48
2016-11-03T09:33:55.017Z,9.49
2016-11-03T09:34:55.061Z,9.57
2016-11-03T09:35:55.061Z,9.48
2016-11-03T09:36:55.067Z,9.46
2016-11-03T09:37:55.074Z,9.57
2016-11-03T09:38:55.714Z,9.63
2016-11-03T09:39:55.052Z,9.64
2016-11-03T09:40:55.062Z,9.57
2016-11-03T09:41:54.997Z,9.67
2016-11-03T09:42:55.021Z,9.67
2016-11-03T09:43:55.017Z,9.61
2016-11-03T09:44:55.018Z,9.82
2016-11-03T09:45:55.039Z,9.61
2016-11-03T09:46:54.987Z,9.67
2016-11-03T09:47:55.007Z,9.81
2016-11-03T09:48:55.018Z,9.73
2016-11-03T09:49:55.034Z,9.75
2016-11-03T09:50:55.135Z,9.81
2016-11-03T09:51:55.064Z,9.96
2016-11-03T09:52:55.039Z,9.83
2016-11-03T09:53:55.065Z,9.82
2016-11-03T09:54:55.044Z,9.79
2016-11-03T09:55:55.085Z,9.88
2016-11-03T09:56:55.021Z,9.79
2016-11-03T09:57:55.014Z,9.89
2016-11-03T09:58:55.012Z,9.83
2016-11-03T09:59:55.113Z,9.85
2016-11-03T10:00:55.040Z,9.96
2016-11-03T10:01:55.019Z,9.99
2016-11-03T10:02:54.999Z,9.68
2016-11-03T10:03:55.034Z,10
2016-11-03T10:04:55.044Z,10.03
2016-11-03T10:05:55.065Z,10.03
2016-11-03T10:06:55.025Z,10.07
2016-11-03T10:07:55.098Z,10.04
2016-11-03T10:08:55.325Z,10.14
2016-11-03T10:09:55.053Z,10.12
2016-11-03T10:10:55.047Z,10.18
2016-11-03T10:11:55.208Z,10.19
2016-11-03T10:12:55.042Z,10.3
2016-11-03T10:13:55.035Z,10.3
2016-11-03T10:14:55.057Z,10.39
2016-11-03T10:15:55.103Z,10.28
2016-11-03T10:16:55.057Z,10.32
2016-11-03T10:17:55.052Z,10.28
2016-11-03T10:18:55.115Z,10.34
2016-11-03T10:19:55.042Z,10.36
2016-11-03T10:20:55.080Z,10.26
2016-11-03T10:21:55.137Z,10.34
2016-11-03T10:22:55.187Z,10.44
2016-11-03T10:23:55.123Z,10.46
2016-11-03T10:24:55.057Z,10.55
2016-11-03T10:25:55.151Z,10.44
2016-11-03T10:26:55.068Z,10.6
2016-11-03T10:27:55.075Z,10.44
2016-11-03T10:28:55.099Z,10.52
2016-11-03T10:29:55.103Z,10.59
2016-11-03T10:30:55.108Z,10.6
2016-11-03T10:31:55.137Z,10.46
2016-11-03T10:32:55.094Z,10.63
2016-11-03T10:33:55.115Z,10.62
2016-11-03T10:34:55.196Z,10.58
2016-11-03T10:35:55.179Z,10.56
2016-11-03T10:36:55.129Z,10.59
2016-11-03T10:37:55.145Z,10.55
2016-11-03T10:38:55.083Z,10.65
2016-11-03T10:39:55.090Z,10.56
2016-11-03T10:40:55.096Z,10.52
2016-11-03T10:41:55.139Z,10.53
2016-11-03T10:42:55.093Z,10.6
2016-11-03T10:43:55.115Z,10.55
2016-11-03T10:44:55.085Z,10.56
2016-11-03T10:45:55.097Z,10.7
2016-11-03T10:46:55.104Z,10.56
2016-11-03T10:47:55.120Z,10.71
2016-11-03T10:48:55.112Z,10.59
2016-11-03T10:49:55.118Z,10.56
2016-11-03T10:50:55.109Z,10.58
2016-11-03T10:51:55.218Z,10.56
2016-11-03T10:52:55.154Z,10.46
2016-11-03T10:53:55.116Z,10.53
2016-11-03T10:54:55.122Z,10.37
2016-11-03T10:55:55.160Z,10.44
2016-11-03T10:56:55.288Z,10.44
2016-11-03T10:57:55.137Z,10.43
2016-11-03T10:58:55.160Z,10.51
2016-11-03T10:59:55.076Z,10.33
2016-11-03T11:00:55.124Z,10.59
2016-11-03T11:01:55.145Z,10.52
2016-11-03T11:02:55.118Z,10.58
2016-11-03T11:03:55.095Z,10.51
2016-11-03T11:04:55.100Z,10.46
2016-11-03T11:05:55.106Z,10.55
2016-11-03T11:06:55.077Z,10.55
2016-11-03T11:07:55.126Z,10.47
2016-11-03T11:08:55.086Z,10.43
2016-11-03T11:09:55.298Z,10.4
2016-11-03T11:10:55.113Z,10.43
2016-11-03T11:11:55.079Z,10.6
2016-11-03T11:12:55.349Z,10.6
2016-11-03T11:13:55.119Z,10.52
2016-11-03T11:14:55.122Z,10.52
2016-11-03T11:15:55.108Z,10.55
2016-11-03T11:16:55.067Z,10.51
2016-11-03T11:17:55.104Z,10.47
2016-11-03T11:18:55.139Z,10.46
2016-11-03T11:19:55.117Z,10.53
2016-11-03T11:20:55.152Z,10.63
2016-11-03T11:21:55.131Z,10.55
2016-11-03T11:22:55.105Z,10.51
2016-11-03T11:23:55.114Z,10.55
2016-11-03T11:24:55.151Z,10.53
2016-11-03T11:25:55.143Z,10.65
2016-11-03T11:26:55.123Z,10.55
2016-11-03T11:27:55.162Z,10.62
2016-11-03T11:28:55.136Z,10.66
2016-11-03T11:29:55.141Z,10.76
2016-11-03T11:30:55.208Z,10.74
2016-11-03T11:31:55.134Z,10.76
2016-11-03T11:32:55.125Z,10.78
2016-11-03T11:33:55.182Z,10.83
2016-11-03T11:34:55.235Z,10.96
2016-11-03T11:35:55.936Z,10.74
2016-11-03T11:36:55.169Z,10.89
2016-11-03T11:37:55.157Z,10.8
2016-11-03T11:38:55.145Z,10.86
2016-11-03T11:39:55.190Z,10.91
2016-11-03T11:40:55.196Z,11.1
2016-11-03T11:41:55.291Z,11.11
2016-11-03T11:42:55.127Z,11.1
2016-11-03T11:43:55.232Z,11.19
2016-11-03T11:44:55.139Z,11.16
2016-11-03T11:45:55.302Z,11.25
2016-11-03T11:46:55.149Z,11.17
2016-11-03T11:47:55.142Z,11.02
2016-11-03T11:48:55.164Z,11.02
2016-11-03T11:49:55.257Z,11.06
2016-11-03T11:50:55.162Z,11.09
2016-11-03T11:51:55.175Z,11.2
2016-11-03T11:52:55.153Z,11.07
2016-11-03T11:53:55.144Z,11.25
2016-11-03T11:54:55.144Z,11.27
2016-11-03T11:55:55.173Z,11.29
2016-11-03T11:56:55.785Z,11.19
2016-11-03T11:57:55.138Z,11.11
2016-11-03T11:58:55.248Z,11.1
2016-11-03T11:59:55.151Z,11.06
2016-11-03T12:00:55.196Z,10.95
2016-11-03T12:01:55.180Z,10.88
2016-11-03T12:02:55.977Z,10.91
2016-11-03T12:03:55.383Z,10.8
2016-11-03T12:04:55.155Z,10.78
2016-11-03T12:05:55.172Z,10.91
2016-11-03T12:06:55.177Z,10.81
2016-11-03T12:07:55.171Z,10.94
2016-11-03T12:08:55.206Z,10.98
2016-11-03T12:09:55.374Z,11.01
2016-11-03T12:10:55.162Z,11.11
2016-11-03T12:11:55.145Z,11.01
2016-11-03T12:12:55.154Z,10.99
2016-11-03T12:13:55.151Z,11.11
2016-11-03T12:14:55.137Z,11.07
2016-11-03T12:15:55.177Z,11.09
2016-11-03T12:16:55.166Z,11.11
2016-11-03T12:17:55.175Z,11.01
2016-11-03T12:18:55.235Z,10.77
2016-11-03T12:19:55.261Z,10.84
2016-11-03T12:20:55.246Z,10.8
2016-11-03T12:21:55.216Z,10.71
2016-11-03T12:22:55.198Z,10.74
2016-11-03T12:23:55.188Z,10.74
2016-11-03T12:24:55.223Z,10.76
2016-11-03T12:25:55.280Z,10.68
2016-11-03T12:26:55.189Z,10.83
2016-11-03T12:27:55.259Z,10.74
2016-11-03T12:28:55.184Z,10.73
2016-11-03T12:29:55.232Z,10.76
2016-11-03T12:30:55.228Z,10.74
2016-11-03T12:31:55.252Z,10.84
2016-11-03T12:32:55.246Z,10.99
2016-11-03T12:33:55.260Z,10.95
2016-11-03T12:34:55.230Z,10.81
2016-11-03T12:35:55.217Z,10.92
2016-11-03T12:36:55.519Z,10.95
2016-11-03T12:37:55.352Z,11.06
2016-11-03T12:38:56.104Z,10.99
2016-11-03T12:39:55.548Z,11.14
2016-11-03T12:40:56.279Z,11.16
2016-11-03T12:41:55.634Z,11.13
2016-11-03T12:42:56.194Z,11.06
2016-11-03T12:43:55.349Z,11.06
2016-11-03T12:44:55.202Z,11.14
2016-11-03T12:45:55.340Z,11.02
2016-11-03T12:46:55.221Z,10.99
2016-11-03T12:47:55.747Z,11.02
2016-11-03T12:48:55.237Z,10.98
2016-11-03T12:49:55.206Z,11.02
2016-11-03T12:50:55.368Z,10.91
2016-11-03T12:51:55.318Z,10.86
2016-11-03T12:52:55.325Z,10.83
2016-11-03T12:53:55.441Z,10.95
2016-11-03T12:54:55.201Z,10.88
2016-11-03T12:55:55.397Z,10.81
2016-11-03T12:56:55.319Z,10.86
2016-11-03T12:57:55.582Z,10.86
2016-11-03T12:58:55.335Z,10.94
2016-11-03T12:59:55.236Z,10.81
2016-11-03T13:00:55.265Z,10.89
2016-11-03T13:01:55.291Z,10.8
2016-11-03T13:02:55.263Z,10.76
2016-11-03T13:03:55.270Z,10.92
2016-11-03T13:04:55.266Z,10.84
2016-11-03T13:05:55.377Z,10.77
2016-11-03T13:06:55.340Z,10.8
2016-11-03T13:07:55.242Z,10.84
2016-11-03T13:08:55.268Z,10.88
2016-11-03T13:09:55.275Z,10.74
2016-11-03T13:10:55.821Z,10.84
2016-11-03T13:11:55.281Z,10.88
2016-11-03T13:12:55.371Z,10.99
2016-11-03T13:13:55.185Z,10.94
2016-11-03T13:14:55.218Z,10.96